sensor_id;sensor_type;location;lat;lon;timestamp;P1;durP1;ratioP1;P2;durP2;ratioP2
13832;SDS011;6987;19.472;-99.276;2022-08-24T00:02:11;1.35;;;1.35;;
13832;SDS011;6987;19.472;-99.276;2022-08-24T00:04:42;1.58;;;1.48;;
13832;SDS011;6987;19.472;-99.276;2022-08-24T00:07:11;1.90;;;1.65;;
13832;SDS011;6987;19.472;-99.276;2022-08-24T00:09:41;2.08;;;1.42;;
13832;SDS011;6987;19.472;-99.276;2022-08-24T00:12:12;1.98;;;1.88;;
13832;SDS011;6987;19.472;-99.276;2022-08-24T00:14:42;2.25;;;2.05;;
13832;SDS011;6987;19.472;-99.276;2022-08-24T00:17:12;2.58;;;2.38;;
13832;SDS011;6987;19.472;-99.276;2022-08-24T00:19:41;1.85;;;1.75;;
13832;SDS011;6987;19.472;-99.276;2022-08-24T00:22:10;2.97;;;1.90;;
13832;SDS011;6987;19.472;-99.276;2022-08-24T00:24:40;2.00;;;1.90;;
13832;SDS011;6987;19.472;-99.276;2022-08-24T00:27:11;1.63;;;1.52;;
13832;SDS011;6987;19.472;-99.276;2022-08-24T00:29:40;8.13;;;2.33;;
13832;SDS011;6987;19.472;-99.276;2022-08-24T00:32:10;5.13;;;2.10;;
13832;SDS011;6987;19.472;-99.276;2022-08-24T00:34:39;3.67;;;2.08;;
13832;SDS011;6987;19.472;-99.276;2022-08-24T00:37:09;2.33;;;2.17;;
13832;SDS011;6987;19.472;-99.276;2022-08-24T00:39:39;2.15;;;1.98;;
13832;SDS011;6987;19.472;-99.276;2022-08-24T00:42:08;2.67;;;2.10;;
13832;SDS011;6987;19.472;-99.276;2022-08-24T00:44:39;3.28;;;2.28;;
13832;SDS011;6987;19.472;-99.276;2022-08-24T00:47:10;2.20;;;2.10;;
13832;SDS011;6987;19.472;-99.276;2022-08-24T00:49:45;2.22;;;2.00;;
13832;SDS011;6987;19.472;-99.276;2022-08-24T00:52:22;2.95;;;2.40;;
13832;SDS011;6987;19.472;-99.276;2022-08-24T00:54:54;3.60;;;2.40;;
13832;SDS011;6987;19.472;-99.276;2022-08-24T00:57:36;6.43;;;2.45;;
13832;SDS011;6987;19.472;-99.276;2022-08-24T01:00:11;3.17;;;2.47;;
13832;SDS011;6987;19.472;-99.276;2022-08-24T01:02:44;2.55;;;2.35;;
13832;SDS011;6987;19.472;-99.276;2022-08-24T01:05:16;2.17;;;2.03;;
13832;SDS011;6987;19.472;-99.276;2022-08-24T01:07:45;2.55;;;2.40;;
13832;SDS011;6987;19.472;-99.276;2022-08-24T01:10:16;2.58;;;2.38;;
13832;SDS011;6987;19.472;-99.276;2022-08-24T01:12:49;3.17;;;2.15;;
13832;SDS011;6987;19.472;-99.276;2022-08-24T01:15:23;2.67;;;2.47;;
13832;SDS011;6987;19.472;-99.276;2022-08-24T01:17:53;4.45;;;3.10;;
13832;SDS011;6987;19.472;-99.276;2022-08-24T01:20:39;2.78;;;2.55;;
13832;SDS011;6987;19.472;-99.276;2022-08-24T01:23:13;4.70;;;2.75;;
13832;SDS011;6987;19.472;-99.276;2022-08-24T01:25:54;3.10;;;2.90;;
13832;SDS011;6987;19.472;-99.276;2022-08-24T01:28:23;4.63;;;2.85;;
13832;SDS011;6987;19.472;-99.276;2022-08-24T01:30:53;6.60;;;3.42;;
13832;SDS011;6987;19.472;-99.276;2022-08-24T01:33:23;3.15;;;2.88;;
13832;SDS011;6987;19.472;-99.276;2022-08-24T01:35:56;2.88;;;2.67;;
13832;SDS011;6987;19.472;-99.276;2022-08-24T01:38:29;3.33;;;3.03;;
13832;SDS011;6987;19.472;-99.276;2022-08-24T01:41:00;2.97;;;2.63;;
13832;SDS011;6987;19.472;-99.276;2022-08-24T01:43:31;7.07;;;3.85;;
13832;SDS011;6987;19.472;-99.276;2022-08-24T01:46:00;5.30;;;3.42;;
13832;SDS011;6987;19.472;-99.276;2022-08-24T01:48:29;4.15;;;3.22;;
13832;SDS011;6987;19.472;-99.276;2022-08-24T01:50:58;13.60;;;4.10;;
13832;SDS011;6987;19.472;-99.276;2022-08-24T01:53:29;9.45;;;4.55;;
13832;SDS011;6987;19.472;-99.276;2022-08-24T01:55:58;19.27;;;4.00;;
13832;SDS011;6987;19.472;-99.276;2022-08-24T01:58:28;7.90;;;4.05;;
13832;SDS011;6987;19.472;-99.276;2022-08-24T02:00:57;5.63;;;3.97;;
13832;SDS011;6987;19.472;-99.276;2022-08-24T02:03:26;5.72;;;3.22;;
13832;SDS011;6987;19.472;-99.276;2022-08-24T02:05:55;4.40;;;3.78;;
13832;SDS011;6987;19.472;-99.276;2022-08-24T02:08:25;7.80;;;3.35;;
13832;SDS011;6987;19.472;-99.276;2022-08-24T02:10:56;10.85;;;4.20;;
13832;SDS011;6987;19.472;-99.276;2022-08-24T02:13:25;7.35;;;4.45;;
13832;SDS011;6987;19.472;-99.276;2022-08-24T02:15:55;5.15;;;3.65;;
13832;SDS011;6987;19.472;-99.276;2022-08-24T02:18:24;4.00;;;3.55;;
13832;SDS011;6987;19.472;-99.276;2022-08-24T02:20:58;5.35;;;4.05;;
13832;SDS011;6987;19.472;-99.276;2022-08-24T02:23:27;5.28;;;4.60;;
13832;SDS011;6987;19.472;-99.276;2022-08-24T02:25:59;5.18;;;3.45;;
13832;SDS011;6987;19.472;-99.276;2022-08-24T02:28:28;9.82;;;4.20;;
13832;SDS011;6987;19.472;-99.276;2022-08-24T02:30:58;4.47;;;3.38;;
13832;SDS011;6987;19.472;-99.276;2022-08-24T02:33:30;5.60;;;3.17;;
13832;SDS011;6987;19.472;-99.276;2022-08-24T02:36:00;3.47;;;3.17;;
13832;SDS011;6987;19.472;-99.276;2022-08-24T02:38:31;3.47;;;3.17;;
13832;SDS011;6987;19.472;-99.276;2022-08-24T02:41:03;4.25;;;2.90;;
13832;SDS011;6987;19.472;-99.276;2022-08-24T02:43:32;4.97;;;3.08;;
13832;SDS011;6987;19.472;-99.276;2022-08-24T02:46:01;2.75;;;2.50;;
13832;SDS011;6987;19.472;-99.276;2022-08-24T02:48:31;2.92;;;2.63;;
13832;SDS011;6987;19.472;-99.276;2022-08-24T02:51:00;5.10;;;3.13;;
13832;SDS011;6987;19.472;-99.276;2022-08-24T02:53:29;3.08;;;2.88;;
13832;SDS011;6987;19.472;-99.276;2022-08-24T02:55:58;3.63;;;3.00;;
13832;SDS011;6987;19.472;-99.276;2022-08-24T02:58:29;3.08;;;2.80;;
13832;SDS011;6987;19.472;-99.276;2022-08-24T03:00:59;6.07;;;3.33;;
13832;SDS011;6987;19.472;-99.276;2022-08-24T03:03:28;4.95;;;3.25;;
13832;SDS011;6987;19.472;-99.276;2022-08-24T03:05:57;5.22;;;3.60;;
13832;SDS011;6987;19.472;-99.276;2022-08-24T03:08:27;6.60;;;2.80;;
13832;SDS011;6987;19.472;-99.276;2022-08-24T03:10:56;4.07;;;2.72;;
13832;SDS011;6987;19.472;-99.276;2022-08-24T03:13:25;12.85;;;3.92;;
13832;SDS011;6987;19.472;-99.276;2022-08-24T03:15:57;10.25;;;3.70;;
13832;SDS011;6987;19.472;-99.276;2022-08-24T03:18:27;4.50;;;3.08;;
13832;SDS011;6987;19.472;-99.276;2022-08-24T03:20:57;9.43;;;3.28;;
13832;SDS011;6987;19.472;-99.276;2022-08-24T03:23:28;3.75;;;3.45;;
13832;SDS011;6987;19.472;-99.276;2022-08-24T03:25:58;4.75;;;2.65;;
13832;SDS011;6987;19.472;-99.276;2022-08-24T03:28:28;4.65;;;3.30;;
13832;SDS011;6987;19.472;-99.276;2022-08-24T03:30:59;2.67;;;2.58;;
13832;SDS011;6987;19.472;-99.276;2022-08-24T03:33:28;4.57;;;3.45;;
13832;SDS011;6987;19.472;-99.276;2022-08-24T03:35:58;7.00;;;4.05;;
13832;SDS011;6987;19.472;-99.276;2022-08-24T03:38:27;4.15;;;3.67;;
13832;SDS011;6987;19.472;-99.276;2022-08-24T03:40:56;4.10;;;3.47;;
13832;SDS011;6987;19.472;-99.276;2022-08-24T03:43:26;9.48;;;3.78;;
13832;SDS011;6987;19.472;-99.276;2022-08-24T03:46:10;4.88;;;4.13;;
13832;SDS011;6987;19.472;-99.276;2022-08-24T03:48:39;4.50;;;3.92;;
13832;SDS011;6987;19.472;-99.276;2022-08-24T03:51:10;6.25;;;3.83;;
13832;SDS011;6987;19.472;-99.276;2022-08-24T03:53:40;4.88;;;3.75;;
13832;SDS011;6987;19.472;-99.276;2022-08-24T03:56:10;8.90;;;3.65;;
13832;SDS011;6987;19.472;-99.276;2022-08-24T03:58:41;5.32;;;3.80;;
13832;SDS011;6987;19.472;-99.276;2022-08-24T04:01:13;7.47;;;4.03;;
13832;SDS011;6987;19.472;-99.276;2022-08-24T04:03:43;4.45;;;4.07;;
13832;SDS011;6987;19.472;-99.276;2022-08-24T04:06:14;6.18;;;4.15;;
13832;SDS011;6987;19.472;-99.276;2022-08-24T04:08:45;5.68;;;3.88;;
13832;SDS011;6987;19.472;-99.276;2022-08-24T04:11:15;4.32;;;3.92;;
13832;SDS011;6987;19.472;-99.276;2022-08-24T04:13:46;8.18;;;4.15;;
13832;SDS011;6987;19.472;-99.276;2022-08-24T04:16:18;4.75;;;4.32;;
13832;SDS011;6987;19.472;-99.276;2022-08-24T04:18:48;6.55;;;4.00;;
13832;SDS011;6987;19.472;-99.276;2022-08-24T04:21:17;6.85;;;4.35;;
13832;SDS011;6987;19.472;-99.276;2022-08-24T04:23:49;5.85;;;3.80;;
13832;SDS011;6987;19.472;-99.276;2022-08-24T04:26:19;5.20;;;4.70;;
13832;SDS011;6987;19.472;-99.276;2022-08-24T04:28:50;7.30;;;4.57;;
13832;SDS011;6987;19.472;-99.276;2022-08-24T04:31:21;4.68;;;4.28;;
13832;SDS011;6987;19.472;-99.276;2022-08-24T04:33:50;5.22;;;4.72;;
13832;SDS011;6987;19.472;-99.276;2022-08-24T04:36:20;4.78;;;4.35;;
13832;SDS011;6987;19.472;-99.276;2022-08-24T04:38:49;6.32;;;4.78;;
13832;SDS011;6987;19.472;-99.276;2022-08-24T04:41:19;5.15;;;4.72;;
13832;SDS011;6987;19.472;-99.276;2022-08-24T04:43:48;5.20;;;4.78;;
13832;SDS011;6987;19.472;-99.276;2022-08-24T04:46:18;8.10;;;5.10;;
13832;SDS011;6987;19.472;-99.276;2022-08-24T04:48:49;9.95;;;5.40;;
13832;SDS011;6987;19.472;-99.276;2022-08-24T04:51:18;4.30;;;3.97;;
13832;SDS011;6987;19.472;-99.276;2022-08-24T04:53:48;4.55;;;4.22;;
13832;SDS011;6987;19.472;-99.276;2022-08-24T04:56:18;5.45;;;4.65;;
13832;SDS011;6987;19.472;-99.276;2022-08-24T04:58:49;5.72;;;5.22;;
13832;SDS011;6987;19.472;-99.276;2022-08-24T05:01:21;5.35;;;4.28;;
13832;SDS011;6987;19.472;-99.276;2022-08-24T05:03:53;5.20;;;4.72;;
13832;SDS011;6987;19.472;-99.276;2022-08-24T05:06:23;6.78;;;4.78;;
13832;SDS011;6987;19.472;-99.276;2022-08-24T05:08:55;5.15;;;4.72;;
13832;SDS011;6987;19.472;-99.276;2022-08-24T05:11:25;6.78;;;4.50;;
13832;SDS011;6987;19.472;-99.276;2022-08-24T05:13:55;4.95;;;4.60;;
13832;SDS011;6987;19.472;-99.276;2022-08-24T05:16:26;5.47;;;4.97;;
13832;SDS011;6987;19.472;-99.276;2022-08-24T05:18:57;6.53;;;4.90;;
13832;SDS011;6987;19.472;-99.276;2022-08-24T05:21:27;6.20;;;4.82;;
13832;SDS011;6987;19.472;-99.276;2022-08-24T05:23:57;7.45;;;5.03;;
13832;SDS011;6987;19.472;-99.276;2022-08-24T05:26:26;10.30;;;5.10;;
13832;SDS011;6987;19.472;-99.276;2022-08-24T05:28:57;5.18;;;4.68;;
13832;SDS011;6987;19.472;-99.276;2022-08-24T05:31:30;5.22;;;4.72;;
13832;SDS011;6987;19.472;-99.276;2022-08-24T05:34:00;7.95;;;5.30;;
13832;SDS011;6987;19.472;-99.276;2022-08-24T05:36:31;5.78;;;5.22;;
13832;SDS011;6987;19.472;-99.276;2022-08-24T05:39:03;5.25;;;4.75;;
13832;SDS011;6987;19.472;-99.276;2022-08-24T05:41:35;7.00;;;5.28;;
13832;SDS011;6987;19.472;-99.276;2022-08-24T05:44:04;15.93;;;6.45;;
13832;SDS011;6987;19.472;-99.276;2022-08-24T05:46:35;9.52;;;5.93;;
13832;SDS011;6987;19.472;-99.276;2022-08-24T05:49:05;6.65;;;5.60;;
13832;SDS011;6987;19.472;-99.276;2022-08-24T05:51:34;6.05;;;5.47;;
13832;SDS011;6987;19.472;-99.276;2022-08-24T05:54:05;10.93;;;6.00;;
13832;SDS011;6987;19.472;-99.276;2022-08-24T05:56:34;6.18;;;5.72;;
13832;SDS011;6987;19.472;-99.276;2022-08-24T05:59:03;6.35;;;5.82;;
13832;SDS011;6987;19.472;-99.276;2022-08-24T06:01:33;7.05;;;5.93;;
13832;SDS011;6987;19.472;-99.276;2022-08-24T06:04:04;8.57;;;7.45;;
13832;SDS011;6987;19.472;-99.276;2022-08-24T06:06:33;7.88;;;6.65;;
13832;SDS011;6987;19.472;-99.276;2022-08-24T06:09:02;7.63;;;6.57;;
13832;SDS011;6987;19.472;-99.276;2022-08-24T06:11:33;11.20;;;6.57;;
13832;SDS011;6987;19.472;-99.276;2022-08-24T06:14:04;10.77;;;6.60;;
13832;SDS011;6987;19.472;-99.276;2022-08-24T06:16:36;8.30;;;6.70;;
13832;SDS011;6987;19.472;-99.276;2022-08-24T06:19:07;10.55;;;7.65;;
13832;SDS011;6987;19.472;-99.276;2022-08-24T06:21:38;9.23;;;6.90;;
13832;SDS011;6987;19.472;-99.276;2022-08-24T06:24:07;8.85;;;6.78;;
13832;SDS011;6987;19.472;-99.276;2022-08-24T06:26:37;7.65;;;6.95;;
13832;SDS011;6987;19.472;-99.276;2022-08-24T06:29:23;8.80;;;6.35;;
13832;SDS011;6987;19.472;-99.276;2022-08-24T06:31:53;6.68;;;6.18;;
13832;SDS011;6987;19.472;-99.276;2022-08-24T06:34:23;11.13;;;8.35;;
13832;SDS011;6987;19.472;-99.276;2022-08-24T06:36:52;8.60;;;7.65;;
13832;SDS011;6987;19.472;-99.276;2022-08-24T06:39:21;7.78;;;6.97;;
13832;SDS011;6987;19.472;-99.276;2022-08-24T06:41:50;9.15;;;7.35;;
13832;SDS011;6987;19.472;-99.276;2022-08-24T06:44:20;7.93;;;7.13;;
13832;SDS011;6987;19.472;-99.276;2022-08-24T06:46:49;9.20;;;7.95;;
13832;SDS011;6987;19.472;-99.276;2022-08-24T06:49:20;8.38;;;6.95;;
13832;SDS011;6987;19.472;-99.276;2022-08-24T06:51:50;8.75;;;6.55;;
13832;SDS011;6987;19.472;-99.276;2022-08-24T06:54:19;8.02;;;7.40;;
13832;SDS011;6987;19.472;-99.276;2022-08-24T06:56:48;8.70;;;7.93;;
13832;SDS011;6987;19.472;-99.276;2022-08-24T06:59:17;8.30;;;7.57;;
13832;SDS011;6987;19.472;-99.276;2022-08-24T07:01:46;10.10;;;7.65;;
13832;SDS011;6987;19.472;-99.276;2022-08-24T07:04:16;8.82;;;7.93;;
13832;SDS011;6987;19.472;-99.276;2022-08-24T07:06:47;7.85;;;7.15;;
13832;SDS011;6987;19.472;-99.276;2022-08-24T07:09:16;7.55;;;6.80;;
13832;SDS011;6987;19.472;-99.276;2022-08-24T07:11:45;7.25;;;6.65;;
13832;SDS011;6987;19.472;-99.276;2022-08-24T07:14:15;7.47;;;6.63;;
13832;SDS011;6987;19.472;-99.276;2022-08-24T07:16:44;8.63;;;7.72;;
13832;SDS011;6987;19.472;-99.276;2022-08-24T07:19:13;8.65;;;7.82;;
13832;SDS011;6987;19.472;-99.276;2022-08-24T07:21:43;8.05;;;7.32;;
13832;SDS011;6987;19.472;-99.276;2022-08-24T07:24:14;9.55;;;6.88;;
13832;SDS011;6987;19.472;-99.276;2022-08-24T07:26:43;8.40;;;7.32;;
13832;SDS011;6987;19.472;-99.276;2022-08-24T07:29:12;7.38;;;6.68;;
13832;SDS011;6987;19.472;-99.276;2022-08-24T07:31:42;7.38;;;6.68;;
13832;SDS011;6987;19.472;-99.276;2022-08-24T07:34:13;6.55;;;5.93;;
13832;SDS011;6987;19.472;-99.276;2022-08-24T07:36:42;7.55;;;6.85;;
13832;SDS011;6987;19.472;-99.276;2022-08-24T07:39:14;7.95;;;6.63;;
13832;SDS011;6987;19.472;-99.276;2022-08-24T07:41:44;13.98;;;6.80;;
13832;SDS011;6987;19.472;-99.276;2022-08-24T07:44:13;7.55;;;6.75;;
13832;SDS011;6987;19.472;-99.276;2022-08-24T07:46:43;7.55;;;6.82;;
13832;SDS011;6987;19.472;-99.276;2022-08-24T07:49:12;7.38;;;6.63;;
13832;SDS011;6987;19.472;-99.276;2022-08-24T07:51:42;7.07;;;6.47;;
13832;SDS011;6987;19.472;-99.276;2022-08-24T07:54:15;9.27;;;6.65;;
13832;SDS011;6987;19.472;-99.276;2022-08-24T07:56:44;10.65;;;7.38;;
13832;SDS011;6987;19.472;-99.276;2022-08-24T07:59:14;7.45;;;6.63;;
13832;SDS011;6987;19.472;-99.276;2022-08-24T08:01:44;6.60;;;6.00;;
13832;SDS011;6987;19.472;-99.276;2022-08-24T08:04:14;7.35;;;6.28;;
13832;SDS011;6987;19.472;-99.276;2022-08-24T08:06:46;7.00;;;6.40;;
13832;SDS011;6987;19.472;-99.276;2022-08-24T08:09:17;6.28;;;5.72;;
13832;SDS011;6987;19.472;-99.276;2022-08-24T08:11:47;7.75;;;6.00;;
13832;SDS011;6987;19.472;-99.276;2022-08-24T08:14:16;6.30;;;5.75;;
13832;SDS011;6987;19.472;-99.276;2022-08-24T08:16:45;6.50;;;5.90;;
13832;SDS011;6987;19.472;-99.276;2022-08-24T08:19:15;5.43;;;5.03;;
13832;SDS011;6987;19.472;-99.276;2022-08-24T08:21:46;7.30;;;6.57;;
13832;SDS011;6987;19.472;-99.276;2022-08-24T08:24:35;5.90;;;5.40;;
13832;SDS011;6987;19.472;-99.276;2022-08-24T08:27:07;6.57;;;6.07;;
13832;SDS011;6987;19.472;-99.276;2022-08-24T08:29:37;6.65;;;5.70;;
13832;SDS011;6987;19.472;-99.276;2022-08-24T08:32:08;6.03;;;5.50;;
13832;SDS011;6987;19.472;-99.276;2022-08-24T08:34:41;7.65;;;5.50;;
13832;SDS011;6987;19.472;-99.276;2022-08-24T08:37:11;5.70;;;5.20;;
13832;SDS011;6987;19.472;-99.276;2022-08-24T08:39:42;5.65;;;5.15;;
13832;SDS011;6987;19.472;-99.276;2022-08-24T08:42:18;5.43;;;4.97;;
13832;SDS011;6987;19.472;-99.276;2022-08-24T08:45:01;5.53;;;5.13;;
13832;SDS011;6987;19.472;-99.276;2022-08-24T08:47:58;6.10;;;5.53;;
13832;SDS011;6987;19.472;-99.276;2022-08-24T08:50:59;7.55;;;5.78;;
13832;SDS011;6987;19.472;-99.276;2022-08-24T08:54:12;7.05;;;5.13;;
13832;SDS011;6987;19.472;-99.276;2022-08-24T08:57:05;5.78;;;5.28;;
13832;SDS011;6987;19.472;-99.276;2022-08-24T08:59:48;5.80;;;4.85;;
13832;SDS011;6987;19.472;-99.276;2022-08-24T09:02:36;6.38;;;5.88;;
13832;SDS011;6987;19.472;-99.276;2022-08-24T09:08:34;5.97;;;5.05;;
13832;SDS011;6987;19.472;-99.276;2022-08-24T09:11:23;6.03;;;5.43;;
13832;SDS011;6987;19.472;-99.276;2022-08-24T09:17:11;5.75;;;5.25;;
13832;SDS011;6987;19.472;-99.276;2022-08-24T09:19:57;5.68;;;5.18;;
13832;SDS011;6987;19.472;-99.276;2022-08-24T09:22:44;6.82;;;5.28;;
13832;SDS011;6987;19.472;-99.276;2022-08-24T09:25:18;6.20;;;5.45;;
13832;SDS011;6987;19.472;-99.276;2022-08-24T09:28:07;5.28;;;4.85;;
13832;SDS011;6987;19.472;-99.276;2022-08-24T09:31:03;5.07;;;4.68;;
13832;SDS011;6987;19.472;-99.276;2022-08-24T09:34:05;7.38;;;4.78;;
13832;SDS011;6987;19.472;-99.276;2022-08-24T09:36:45;19.67;;;5.22;;
13832;SDS011;6987;19.472;-99.276;2022-08-24T09:42:28;6.00;;;5.25;;
13832;SDS011;6987;19.472;-99.276;2022-08-24T09:45:24;8.27;;;5.32;;
13832;SDS011;6987;19.472;-99.276;2022-08-24T09:48:44;5.70;;;5.20;;
13832;SDS011;6987;19.472;-99.276;2022-08-24T09:54:36;6.00;;;5.50;;
13832;SDS011;6987;19.472;-99.276;2022-08-24T09:57:40;6.13;;;5.07;;
13832;SDS011;6987;19.472;-99.276;2022-08-24T10:00:23;6.50;;;5.75;;
13832;SDS011;6987;19.472;-99.276;2022-08-24T10:02:57;7.10;;;5.25;;
13832;SDS011;6987;19.472;-99.276;2022-08-24T10:05:53;6.13;;;5.45;;
13832;SDS011;6987;19.472;-99.276;2022-08-24T10:08:47;6.00;;;5.20;;
13832;SDS011;6987;19.472;-99.276;2022-08-24T10:11:35;8.70;;;5.05;;
13832;SDS011;6987;19.472;-99.276;2022-08-24T10:14:14;6.05;;;5.45;;
13832;SDS011;6987;19.472;-99.276;2022-08-24T10:16:56;5.97;;;5.47;;
13832;SDS011;6987;19.472;-99.276;2022-08-24T10:22:27;5.25;;;4.82;;
13832;SDS011;6987;19.472;-99.276;2022-08-24T10:25:10;5.85;;;5.28;;
13832;SDS011;6987;19.472;-99.276;2022-08-24T10:27:56;6.53;;;5.55;;
13832;SDS011;6987;19.472;-99.276;2022-08-24T10:30:46;5.30;;;4.93;;
13832;SDS011;6987;19.472;-99.276;2022-08-24T10:33:25;5.85;;;4.88;;
13832;SDS011;6987;19.472;-99.276;2022-08-24T10:36:05;6.00;;;5.45;;
13832;SDS011;6987;19.472;-99.276;2022-08-24T10:38:47;7.00;;;5.43;;
13832;SDS011;6987;19.472;-99.276;2022-08-24T10:44:40;6.32;;;5.72;;
13832;SDS011;6987;19.472;-99.276;2022-08-24T10:47:19;7.25;;;5.47;;
13832;SDS011;6987;19.472;-99.276;2022-08-24T10:50:05;8.52;;;5.82;;
13832;SDS011;6987;19.472;-99.276;2022-08-24T10:55:55;7.75;;;5.95;;
13832;SDS011;6987;19.472;-99.276;2022-08-24T10:58:39;5.63;;;5.15;;
13832;SDS011;6987;19.472;-99.276;2022-08-24T11:01:25;6.80;;;6.10;;
13832;SDS011;6987;19.472;-99.276;2022-08-24T11:04:03;15.55;;;6.55;;
13832;SDS011;6987;19.472;-99.276;2022-08-24T11:06:39;13.00;;;6.60;;
13832;SDS011;6987;19.472;-99.276;2022-08-24T11:09:12;12.73;;;6.38;;
13832;SDS011;6987;19.472;-99.276;2022-08-24T11:11:44;13.15;;;7.25;;
13832;SDS011;6987;19.472;-99.276;2022-08-24T11:14:22;7.72;;;5.70;;
13832;SDS011;6987;19.472;-99.276;2022-08-24T11:17:11;10.88;;;5.55;;
13832;SDS011;6987;19.472;-99.276;2022-08-24T11:19:42;6.43;;;5.88;;
13832;SDS011;6987;19.472;-99.276;2022-08-24T11:22:29;6.47;;;5.85;;
13832;SDS011;6987;19.472;-99.276;2022-08-24T11:25:03;7.03;;;6.32;;
13832;SDS011;6987;19.472;-99.276;2022-08-24T11:27:37;8.75;;;6.25;;
13832;SDS011;6987;19.472;-99.276;2022-08-24T11:30:10;9.10;;;6.55;;
13832;SDS011;6987;19.472;-99.276;2022-08-24T11:32:53;7.82;;;5.93;;
13832;SDS011;6987;19.472;-99.276;2022-08-24T11:35:25;10.43;;;6.70;;
13832;SDS011;6987;19.472;-99.276;2022-08-24T11:38:04;8.30;;;6.63;;
13832;SDS011;6987;19.472;-99.276;2022-08-24T11:40:36;7.57;;;6.63;;
13832;SDS011;6987;19.472;-99.276;2022-08-24T11:43:15;7.75;;;6.95;;
13832;SDS011;6987;19.472;-99.276;2022-08-24T11:45:55;12.30;;;6.13;;
13832;SDS011;6987;19.472;-99.276;2022-08-24T11:48:37;6.63;;;5.93;;
13832;SDS011;6987;19.472;-99.276;2022-08-24T11:51:21;6.97;;;6.38;;
13832;SDS011;6987;19.472;-99.276;2022-08-24T11:53:59;11.73;;;7.00;;
13832;SDS011;6987;19.472;-99.276;2022-08-24T11:56:33;8.60;;;6.60;;
13832;SDS011;6987;19.472;-99.276;2022-08-24T11:59:08;9.98;;;6.80;;
13832;SDS011;6987;19.472;-99.276;2022-08-24T12:01:45;7.50;;;6.70;;
13832;SDS011;6987;19.472;-99.276;2022-08-24T12:07:15;6.90;;;6.20;;
13832;SDS011;6987;19.472;-99.276;2022-08-24T12:09:55;8.05;;;6.53;;
13832;SDS011;6987;19.472;-99.276;2022-08-24T12:12:37;8.27;;;7.35;;
13832;SDS011;6987;19.472;-99.276;2022-08-24T12:15:15;8.07;;;6.32;;
13832;SDS011;6987;19.472;-99.276;2022-08-24T12:17:49;9.88;;;6.32;;
13832;SDS011;6987;19.472;-99.276;2022-08-24T12:20:30;9.82;;;6.80;;
13832;SDS011;6987;19.472;-99.276;2022-08-24T12:23:03;13.15;;;6.65;;
13832;SDS011;6987;19.472;-99.276;2022-08-24T12:25:38;11.23;;;6.28;;
13832;SDS011;6987;19.472;-99.276;2022-08-24T12:28:25;8.98;;;6.68;;
13832;SDS011;6987;19.472;-99.276;2022-08-24T12:30:58;12.23;;;7.43;;
13832;SDS011;6987;19.472;-99.276;2022-08-24T12:33:34;11.52;;;6.70;;
13832;SDS011;6987;19.472;-99.276;2022-08-24T12:36:10;12.88;;;7.05;;
13832;SDS011;6987;19.472;-99.276;2022-08-24T12:38:47;18.15;;;7.95;;
13832;SDS011;6987;19.472;-99.276;2022-08-24T12:41:26;10.98;;;7.20;;
13832;SDS011;6987;19.472;-99.276;2022-08-24T12:44:00;9.30;;;7.28;;
13832;SDS011;6987;19.472;-99.276;2022-08-24T12:46:32;10.70;;;7.50;;
13832;SDS011;6987;19.472;-99.276;2022-08-24T12:49:04;9.50;;;7.10;;
13832;SDS011;6987;19.472;-99.276;2022-08-24T12:51:48;16.30;;;6.88;;
13832;SDS011;6987;19.472;-99.276;2022-08-24T12:54:34;20.55;;;7.75;;
13832;SDS011;6987;19.472;-99.276;2022-08-24T12:57:23;21.10;;;8.05;;
13832;SDS011;6987;19.472;-99.276;2022-08-24T13:00:05;8.40;;;6.88;;
13832;SDS011;6987;19.472;-99.276;2022-08-24T13:02:39;13.60;;;6.90;;
13832;SDS011;6987;19.472;-99.276;2022-08-24T13:05:11;14.77;;;7.55;;
13832;SDS011;6987;19.472;-99.276;2022-08-24T13:07:44;12.63;;;7.20;;
13832;SDS011;6987;19.472;-99.276;2022-08-24T13:10:33;11.45;;;8.27;;
13832;SDS011;6987;19.472;-99.276;2022-08-24T13:13:08;12.85;;;7.03;;
13832;SDS011;6987;19.472;-99.276;2022-08-24T13:16:00;11.25;;;6.85;;
13832;SDS011;6987;19.472;-99.276;2022-08-24T13:21:44;14.80;;;7.05;;
13832;SDS011;6987;19.472;-99.276;2022-08-24T13:30:21;31.00;;;9.48;;
13832;SDS011;6987;19.472;-99.276;2022-08-24T13:33:03;17.20;;;7.82;;
13832;SDS011;6987;19.472;-99.276;2022-08-24T13:38:51;22.08;;;8.20;;
13832;SDS011;6987;19.472;-99.276;2022-08-24T13:41:34;12.15;;;7.43;;
13832;SDS011;6987;19.472;-99.276;2022-08-24T13:44:25;12.13;;;7.20;;
13832;SDS011;6987;19.472;-99.276;2022-08-24T13:47:07;10.35;;;7.55;;
13832;SDS011;6987;19.472;-99.276;2022-08-24T13:49:46;8.43;;;7.35;;
13832;SDS011;6987;19.472;-99.276;2022-08-24T13:52:29;12.32;;;7.60;;
13832;SDS011;6987;19.472;-99.276;2022-08-24T13:55:09;8.25;;;7.43;;
13832;SDS011;6987;19.472;-99.276;2022-08-24T14:00:53;10.00;;;8.13;;
13832;SDS011;6987;19.472;-99.276;2022-08-24T14:06:36;8.10;;;7.30;;
13832;SDS011;6987;19.472;-99.276;2022-08-24T14:09:21;13.02;;;9.25;;
13832;SDS011;6987;19.472;-99.276;2022-08-24T14:15:08;10.43;;;8.65;;
13832;SDS011;6987;19.472;-99.276;2022-08-24T14:17:45;19.30;;;8.88;;
13832;SDS011;6987;19.472;-99.276;2022-08-24T14:23:27;11.23;;;10.07;;
13832;SDS011;6987;19.472;-99.276;2022-08-24T14:35:16;15.57;;;12.50;;
13832;SDS011;6987;19.472;-99.276;2022-08-24T14:37:55;20.15;;;12.45;;
13832;SDS011;6987;19.472;-99.276;2022-08-24T14:40:40;16.52;;;12.85;;
13832;SDS011;6987;19.472;-99.276;2022-08-24T14:43:23;19.48;;;12.23;;
13832;SDS011;6987;19.472;-99.276;2022-08-24T14:46:00;18.67;;;12.13;;
13832;SDS011;6987;19.472;-99.276;2022-08-24T14:48:47;14.43;;;12.55;;
13832;SDS011;6987;19.472;-99.276;2022-08-24T14:51:26;13.57;;;11.55;;
13832;SDS011;6987;19.472;-99.276;2022-08-24T14:54:10;13.73;;;11.32;;
13832;SDS011;6987;19.472;-99.276;2022-08-24T14:56:55;16.92;;;12.98;;
13832;SDS011;6987;19.472;-99.276;2022-08-24T14:59:35;19.23;;;12.45;;
13832;SDS011;6987;19.472;-99.276;2022-08-24T15:02:28;14.57;;;11.95;;
13832;SDS011;6987;19.472;-99.276;2022-08-24T15:05:17;16.27;;;12.10;;
13832;SDS011;6987;19.472;-99.276;2022-08-24T15:07:51;19.90;;;14.60;;
13832;SDS011;6987;19.472;-99.276;2022-08-24T15:10:24;19.83;;;14.52;;
13832;SDS011;6987;19.472;-99.276;2022-08-24T15:13:01;22.38;;;15.43;;
13832;SDS011;6987;19.472;-99.276;2022-08-24T15:15:35;24.15;;;15.43;;
13832;SDS011;6987;19.472;-99.276;2022-08-24T15:18:12;28.05;;;17.10;;
13832;SDS011;6987;19.472;-99.276;2022-08-24T15:21:02;20.75;;;15.43;;
13832;SDS011;6987;19.472;-99.276;2022-08-24T15:23:44;32.42;;;18.00;;
13832;SDS011;6987;19.472;-99.276;2022-08-24T15:26:22;25.33;;;17.20;;
13832;SDS011;6987;19.472;-99.276;2022-08-24T15:28:57;27.60;;;16.33;;
13832;SDS011;6987;19.472;-99.276;2022-08-24T15:31:37;23.45;;;16.60;;
13832;SDS011;6987;19.472;-99.276;2022-08-24T15:34:07;23.25;;;17.33;;
13832;SDS011;6987;19.472;-99.276;2022-08-24T15:36:38;23.77;;;16.60;;
13832;SDS011;6987;19.472;-99.276;2022-08-24T15:39:08;26.05;;;17.15;;
13832;SDS011;6987;19.472;-99.276;2022-08-24T15:41:51;26.13;;;16.83;;
13832;SDS011;6987;19.472;-99.276;2022-08-24T15:44:23;24.35;;;17.40;;
13832;SDS011;6987;19.472;-99.276;2022-08-24T15:46:54;26.42;;;17.13;;
13832;SDS011;6987;19.472;-99.276;2022-08-24T15:49:27;23.55;;;16.30;;
13832;SDS011;6987;19.472;-99.276;2022-08-24T15:52:02;21.95;;;16.08;;
13832;SDS011;6987;19.472;-99.276;2022-08-24T15:54:34;22.45;;;17.25;;
13832;SDS011;6987;19.472;-99.276;2022-08-24T15:57:09;23.65;;;16.25;;
13832;SDS011;6987;19.472;-99.276;2022-08-24T15:59:53;19.67;;;14.70;;
13832;SDS011;6987;19.472;-99.276;2022-08-24T16:02:35;18.52;;;14.65;;
13832;SDS011;6987;19.472;-99.276;2022-08-24T16:05:11;19.75;;;14.88;;
13832;SDS011;6987;19.472;-99.276;2022-08-24T16:08:07;17.73;;;13.25;;
13832;SDS011;6987;19.472;-99.276;2022-08-24T16:10:39;18.02;;;13.98;;
13832;SDS011;6987;19.472;-99.276;2022-08-24T16:13:18;18.50;;;13.88;;